Time;durP1;ratioP1;P1;durP2;ratioP2;P2;SDS_P1;SDS_P2;PMS_P1;PMS_P2;Temp;Humidity;BMP_temperature;BMP_pressure;BME280_temperature;BME280_humidity;BME280_pressure;Samples;Min_cycle;Max_cycle;Signal;HPM_P1;HPM_P2
2021/08/12 00:01:01;;;;;;;6.63;6.10;;;16.90;99.90;;;;;;6229388;23;20159;-89
2021/08/12 00:03:27;;;;;;;7.40;6.73;;;16.90;99.90;;;;;;6208215;23;20396;-89
2021/08/12 00:05:53;;;;;;;7.37;6.60;;;17.10;99.90;;;;;;6207090;23;20437;-88
2021/08/12 00:08:18;;;;;;;7.57;6.87;;;17.30;99.90;;;;;;6206782;23;20179;-89
2021/08/12 00:10:50;;;;;;;6.80;6.10;;;17.30;99.90;;;;;;6205901;23;20543;-90
2021/08/12 00:13:16;;;;;;;7.10;6.50;;;17.30;99.90;;;;;;6206821;23;20482;-89
2021/08/12 00:15:41;;;;;;;9.73;7.90;;;17.30;99.90;;;;;;6207151;23;20467;-90
2021/08/12 00:18:07;;;;;;;8.20;7.40;;;17.30;99.90;;;;;;6207501;23;20390;-90
2021/08/12 00:20:34;;;;;;;8.30;7.50;;;17.40;99.90;;;;;;6207313;23;20194;-90
2021/08/12 00:23:00;;;;;;;10.03;8.27;;;17.40;99.90;;;;;;6206374;23;20171;-90
2021/08/12 00:25:33;;;;;;;11.70;7.63;;;17.40;99.90;;;;;;6205858;23;20449;-89
2021/08/12 00:27:58;;;;;;;7.07;6.40;;;17.30;99.90;;;;;;6206653;23;20257;-88
2021/08/12 00:30:32;;;;;;;7.30;6.60;;;17.20;99.90;;;;;;6232111;23;20735;-88
2021/08/12 00:32:58;;;;;;;7.43;6.73;;;17.10;99.90;;;;;;6206881;23;20415;-89
2021/08/12 00:35:24;;;;;;;7.60;6.80;;;17.00;99.90;;;;;;6206660;23;20181;-88
2021/08/12 00:37:49;;;;;;;7.30;6.60;;;17.00;99.90;;;;;;6209285;23;20159;-89
2021/08/12 00:40:18;;;;;;;7.57;6.87;;;17.00;99.90;;;;;;6208104;23;20159;-89
2021/08/12 00:42:44;;;;;;;7.60;6.90;;;17.00;99.90;;;;;;6209406;23;20166;-89
2021/08/12 00:45:10;;;;;;;8.33;7.10;;;17.10;99.90;;;;;;6211468;23;20903;-89
2021/08/12 00:47:35;;;;;;;9.40;7.20;;;17.10;99.90;;;;;;6208424;23;20596;-87
2021/08/12 00:50:01;;;;;;;7.83;7.10;;;17.20;99.90;;;;;;6208375;23;20302;-89
2021/08/12 00:52:27;;;;;;;8.53;6.60;;;17.20;99.90;;;;;;6207719;23;20224;-89
2021/08/12 00:54:54;;;;;;;8.07;6.70;;;17.20;99.90;;;;;;6210876;23;20166;-89
2021/08/12 00:57:20;;;;;;;7.83;7.03;;;17.10;99.90;;;;;;6208604;23;20429;-88
2021/08/12 00:59:49;;;;;;;8.33;6.90;;;16.90;99.90;;;;;;6211111;23;20394;-89
2021/08/12 01:02:15;;;;;;;8.00;7.00;;;16.90;99.90;;;;;;6206265;23;20402;-89
2021/08/12 01:04:52;;;;;;;8.90;7.00;;;17.00;99.90;;;;;;6210184;23;20450;-89
2021/08/12 01:07:39;;;;;;;9.43;6.80;;;17.10;99.90;;;;;;6210314;23;20236;-89
2021/08/12 01:13:06;;;;;;;8.70;7.33;;;17.10;99.90;;;;;;6217423;23;20401;-89
2021/08/12 01:15:39;;;;;;;8.63;7.73;;;16.90;99.90;;;;;;6208629;23;20966;-88
2021/08/12 01:18:24;;;;;;;8.90;8.00;;;16.90;99.90;;;;;;6209741;23;20394;-89
2021/08/12 01:21:02;;;;;;;13.70;7.80;;;17.00;99.90;;;;;;6210374;23;20432;-89
2021/08/12 01:23:30;;;;;;;7.77;7.07;;;17.00;99.90;;;;;;6210059;23;20394;-89
2021/08/12 01:25:58;;;;;;;8.30;7.50;;;17.00;99.90;;;;;;6208593;23;20897;-89
2021/08/12 01:28:30;;;;;;;8.47;7.67;;;17.00;99.90;;;;;;6207996;23;20389;-89
2021/08/12 01:31:12;;;;;;;8.73;7.83;;;16.80;99.90;;;;;;6207262;23;20402;-89
2021/08/12 01:33:59;;;;;;;8.30;6.97;;;16.80;99.90;;;;;;6209983;23;20382;-88
2021/08/12 01:36:27;;;;;;;8.20;7.40;;;16.80;99.90;;;;;;6209219;23;20400;-88
2021/08/12 01:38:54;;;;;;;7.73;6.93;;;16.80;99.90;;;;;;6210398;23;20390;-89
2021/08/12 01:41:21;;;;;;;8.20;7.37;;;16.60;99.90;;;;;;6182748;23;20394;-89
2021/08/12 01:43:47;;;;;;;9.40;7.37;;;16.60;99.90;;;;;;6235075;23;20386;-90
2021/08/12 01:46:13;;;;;;;10.00;8.10;;;16.60;99.90;;;;;;6206698;23;21027;-89
2021/08/12 01:48:39;;;;;;;8.13;7.40;;;16.50;99.90;;;;;;6210548;23;20242;-90
2021/08/12 01:51:05;;;;;;;11.23;8.00;;;16.50;99.90;;;;;;6206899;23;20199;-89
2021/08/12 01:53:32;;;;;;;8.53;7.73;;;16.60;99.90;;;;;;6208469;23;20447;-89
2021/08/12 01:55:58;;;;;;;9.00;8.10;;;16.60;99.90;;;;;;6207379;23;20922;-89
2021/08/12 01:58:26;;;;;;;10.33;7.90;;;16.60;99.90;;;;;;6207684;23;20497;-89
2021/08/12 02:01:00;;;;;;;8.40;7.60;;;16.50;99.90;;;;;;6207020;23;20398;-89
2021/08/12 02:03:27;;;;;;;8.80;7.90;;;16.60;99.90;;;;;;6208559;23;20513;-88
2021/08/12 02:05:54;;;;;;;8.07;7.27;;;16.70;99.90;;;;;;6209953;23;20433;-89
2021/08/12 02:08:21;;;;;;;8.50;7.70;;;16.60;99.90;;;;;;6210368;23;20390;-89
2021/08/12 02:10:48;;;;;;;8.80;8.10;;;16.50;99.90;;;;;;6208707;23;20394;-89
2021/08/12 02:13:24;;;;;;;7.97;7.17;;;16.60;99.90;;;;;;6208298;23;20443;-89
2021/08/12 02:15:51;;;;;;;9.17;7.73;;;16.60;99.90;;;;;;6207970;23;20429;-89
2021/08/12 02:18:30;;;;;;;8.87;7.73;;;16.50;99.90;;;;;;6207907;23;20407;-89
2021/08/12 02:21:04;;;;;;;8.20;7.40;;;16.50;99.90;;;;;;6207324;23;20386;-89
2021/08/12 02:23:45;;;;;;;9.13;8.23;;;16.40;99.90;;;;;;6210931;23;20402;-89
2021/08/12 02:26:17;;;;;;;9.40;8.50;;;16.30;99.90;;;;;;6208093;23;20526;-89
2021/08/12 02:28:50;;;;;;;8.97;7.93;;;16.30;99.90;;;;;;6206667;23;20392;-89
2021/08/12 02:31:18;;;;;;;11.40;8.00;;;16.30;99.90;;;;;;6207763;23;20398;-89
2021/08/12 02:33:45;;;;;;;11.47;8.47;;;16.40;99.90;;;;;;6208733;23;20396;-89
2021/08/12 02:36:11;;;;;;;8.40;7.60;;;16.30;99.90;;;;;;6210189;23;20732;-88
2021/08/12 02:38:40;;;;;;;8.40;7.60;;;16.40;99.90;;;;;;6207972;23;20393;-89
2021/08/12 02:41:09;;;;;;;9.93;7.70;;;16.30;99.90;;;;;;6209574;23;20241;-89
2021/08/12 02:43:38;;;;;;;8.77;7.87;;;16.30;99.90;;;;;;6208385;23;20759;-88
2021/08/12 02:46:11;;;;;;;9.63;8.13;;;16.30;99.90;;;;;;6209094;23;20879;-88
2021/08/12 02:48:38;;;;;;;9.57;8.67;;;16.30;99.90;;;;;;6209306;23;20390;-88
2021/08/12 02:51:05;;;;;;;8.53;7.73;;;16.30;99.90;;;;;;6206281;23;20459;-88
2021/08/12 02:53:33;;;;;;;9.57;8.77;;;16.30;99.90;;;;;;6207625;23;20692;-88
2021/08/12 02:56:01;;;;;;;8.77;7.97;;;16.30;99.90;;;;;;6208583;23;20404;-89
2021/08/12 02:58:32;;;;;;;9.00;8.10;;;16.30;99.90;;;;;;6206042;23;20441;-89
2021/08/12 03:00:58;;;;;;;10.40;9.30;;;16.30;99.90;;;;;;6207920;23;20922;-89
2021/08/12 03:03:26;;;;;;;8.77;7.93;;;16.30;99.90;;;;;;6232173;23;20465;-89
2021/08/12 03:05:53;;;;;;;9.27;8.20;;;16.20;99.90;;;;;;6233174;23;20448;-90
2021/08/12 03:08:20;;;;;;;9.37;8.23;;;16.20;99.90;;;;;;6208999;23;20405;-90
2021/08/12 03:10:46;;;;;;;9.43;8.53;;;16.10;99.90;;;;;;6206087;23;20397;-90
2021/08/12 03:13:27;;;;;;;8.50;7.50;;;16.10;99.90;;;;;;6207182;23;20902;-90
2021/08/12 03:16:09;;;;;;;8.87;7.67;;;16.20;99.90;;;;;;6210170;23;20158;-91
2021/08/12 03:18:35;;;;;;;9.30;8.03;;;16.20;99.90;;;;;;6183499;23;20774;-90
2021/08/12 03:21:05;;;;;;;9.43;8.43;;;16.20;99.90;;;;;;6209719;23;20465;-91
2021/08/12 03:23:32;;;;;;;9.23;7.97;;;16.20;99.90;;;;;;6209295;23;20474;-90
2021/08/12 03:25:58;;;;;;;9.00;8.13;;;16.20;99.90;;;;;;6232607;23;20491;-90
2021/08/12 03:28:24;;;;;;;9.80;8.90;;;16.20;99.90;;;;;;6207649;23;20440;-90
2021/08/12 03:30:50;;;;;;;9.33;8.43;;;16.20;99.90;;;;;;6207337;23;20482;-90
2021/08/12 03:33:15;;;;;;;9.87;8.97;;;16.20;99.90;;;;;;6207502;23;20183;-90
2021/08/12 03:35:41;;;;;;;10.07;9.10;;;16.20;99.90;;;;;;6234890;23;20213;-90
2021/08/12 03:38:06;;;;;;;9.97;8.97;;;16.20;99.90;;;;;;6209682;23;20154;-89
2021/08/12 03:40:32;;;;;;;9.70;8.70;;;16.10;99.90;;;;;;6208334;23;20166;-89
2021/08/12 03:42:58;;;;;;;9.37;8.50;;;16.10;99.90;;;;;;6205636;23;20167;-88
2021/08/12 03:45:23;;;;;;;11.60;8.70;;;16.10;99.90;;;;;;6209388;23;20497;-88
2021/08/12 03:47:49;;;;;;;10.10;8.37;;;16.00;99.90;;;;;;6208428;23;20167;-88
2021/08/12 03:50:16;;;;;;;8.63;7.70;;;16.00;99.90;;;;;;6208552;23;20679;-88
2021/08/12 03:52:42;;;;;;;8.90;8.00;;;15.90;99.90;;;;;;6236462;23;20151;-89
2021/08/12 03:55:08;;;;;;;9.30;8.40;;;15.90;99.90;;;;;;6209650;23;20389;-90
2021/08/12 03:57:46;;;;;;;9.00;8.20;;;15.80;99.90;;;;;;6208166;23;20197;-88
2021/08/12 04:00:14;;;;;;;10.63;7.40;;;15.70;99.90;;;;;;6206942;23;20424;-88
2021/08/12 04:02:40;;;;;;;8.90;8.10;;;15.60;99.90;;;;;;6208536;23;20389;-89
2021/08/12 04:05:07;;;;;;;9.30;8.17;;;15.60;99.90;;;;;;6209049;23;20394;-89
2021/08/12 04:07:33;;;;;;;10.40;8.40;;;15.50;99.90;;;;;;6207764;23;20406;-88
2021/08/12 04:09:58;;;;;;;7.87;7.17;;;15.60;99.90;;;;;;6207354;23;20394;-88
2021/08/12 04:12:24;;;;;;;9.53;8.33;;;15.60;99.90;;;;;;6208037;23;20402;-88
2021/08/12 04:14:56;;;;;;;9.50;8.30;;;15.60;99.90;;;;;;6208094;23;20159;-87
2021/08/12 04:17:21;;;;;;;9.00;8.10;;;15.50;99.90;;;;;;6210975;23;20167;-88
2021/08/12 04:19:47;;;;;;;9.20;7.80;;;15.40;99.90;;;;;;6210373;23;20390;-89
2021/08/12 04:22:13;;;;;;;8.43;7.30;;;15.30;99.90;;;;;;6211305;23;20424;-88
2021/08/12 04:24:43;;;;;;;9.87;8.10;;;15.50;99.90;;;;;;6209540;23;20159;-88
2021/08/12 04:27:08;;;;;;;9.83;8.13;;;15.60;99.90;;;;;;6209132;23;20557;-87
2021/08/12 04:29:36;;;;;;;8.83;7.50;;;15.60;99.90;;;;;;6235243;23;20829;-88
2021/08/12 04:32:10;;;;;;;9.70;7.87;;;15.60;99.90;;;;;;6209595;23;20284;-87
2021/08/12 04:34:36;;;;;;;9.37;8.47;;;15.60;99.90;;;;;;6209551;23;20443;-88
2021/08/12 04:37:02;;;;;;;8.67;7.80;;;15.60;99.90;;;;;;6209025;23;20394;-88
2021/08/12 04:39:27;;;;;;;8.73;7.90;;;15.70;99.90;;;;;;6208664;23;20198;-88
2021/08/12 04:41:53;;;;;;;8.93;8.13;;;15.80;99.90;;;;;;6209999;23;20612;-87
2021/08/12 04:44:40;;;;;;;8.97;7.70;;;15.80;99.90;;;;;;6209251;23;20162;-91
2021/08/12 04:47:08;;;;;;;9.17;8.20;;;15.80;99.90;;;;;;6209062;23;20705;-95
2021/08/12 04:49:34;;;;;;;8.80;8.00;;;15.70;99.90;;;;;;6211687;23;20883;-94
2021/08/12 04:52:03;;;;;;;9.63;8.17;;;15.80;99.90;;;;;;6213305;23;20455;-93
2021/08/12 04:54:31;;;;;;;9.47;8.47;;;15.80;99.90;;;;;;6210815;23;20754;-92
2021/08/12 04:56:57;;;;;;;9.00;8.10;;;15.90;99.90;;;;;;6212116;23;20397;-92
2021/08/12 04:59:25;;;;;;;9.90;8.67;;;15.90;99.90;;;;;;6213693;23;20424;-96
2021/08/12 05:01:54;;;;;;;8.63;7.73;;;16.00;99.90;;;;;;6212451;23;20170;-93
2021/08/12 05:04:22;;;;;;;9.37;8.20;;;15.90;99.90;;;;;;6213388;23;20421;-94
2021/08/12 05:06:51;;;;;;;9.00;8.20;;;16.00;99.90;;;;;;6211750;23;20445;-92
2021/08/12 05:09:19;;;;;;;9.27;8.30;;;16.00;99.90;;;;;;6211452;23;20394;-92
2021/08/12 05:11:47;;;;;;;9.90;8.63;;;16.10;99.90;;;;;;6207776;23;20402;-93
2021/08/12 05:14:14;;;;;;;10.00;8.23;;;16.10;99.90;;;;;;6211010;23;20849;-93
2021/08/12 05:16:43;;;;;;;11.50;8.77;;;16.10;99.90;;;;;;6211467;23;20793;-93
2021/08/12 05:19:11;;;;;;;15.07;8.47;;;16.30;99.90;;;;;;6212138;23;20720;-93
2021/08/12 05:21:49;;;;;;;10.13;8.20;;;16.40;99.90;;;;;;6209658;23;20401;-93
2021/08/12 05:24:17;;;;;;;10.07;8.70;;;16.50;99.90;;;;;;6209696;23;20489;-94
2021/08/12 05:26:42;;;;;;;9.33;8.43;;;16.50;99.90;;;;;;6211704;23;20444;-93
2021/08/12 05:29:10;;;;;;;12.63;8.97;;;16.40;99.90;;;;;;6211768;23;20390;-93
2021/08/12 05:31:37;;;;;;;9.60;8.60;;;16.40;99.90;;;;;;6211419;23;20170;-94
2021/08/12 05:34:03;;;;;;;9.53;8.53;;;16.40;99.90;;;;;;6210340;23;20852;-92
2021/08/12 05:36:31;;;;;;;9.97;8.40;;;16.40;99.90;;;;;;6211721;23;20147;-95
2021/08/12 05:39:14;;;;;;;9.97;8.27;;;16.40;99.90;;;;;;6226476;23;20670;-90
2021/08/12 05:41:42;;;;;;;10.03;8.70;;;16.50;99.90;;;;;;6208632;23;20418;-90
2021/08/12 05:44:16;;;;;;;9.20;7.80;;;16.40;99.90;;;;;;6209553;23;20166;-90
2021/08/12 05:46:44;;;;;;;13.33;8.53;;;16.40;99.90;;;;;;6233553;23;20817;-86
2021/08/12 05:49:10;;;;;;;9.13;8.23;;;16.40;99.90;;;;;;6202265;23;20603;-93
2021/08/12 05:51:37;;;;;;;9.13;8.33;;;16.40;99.90;;;;;;6206354;23;20473;-89
2021/08/12 05:54:03;;;;;;;8.80;8.00;;;16.20;99.90;;;;;;6207135;23;20404;-93
2021/08/12 05:56:36;;;;;;;13.03;8.73;;;16.20;99.90;;;;;;6210659;23;20708;-93
2021/08/12 05:59:03;;;;;;;10.77;9.60;;;16.30;99.90;;;;;;6189468;23;20417;-93
2021/08/12 06:04:17;;;;;;;9.57;8.43;;;16.40;99.90;;;;;;6240840;23;20399;-95
2021/08/12 06:06:50;;;;;;;9.50;8.60;;;16.50;99.90;;;;;;6217961;23;20529;-94
2021/08/12 06:09:33;;;;;;;13.13;9.27;;;16.60;99.90;;;;;;6209027;23;20401;-94
2021/08/12 06:12:02;;;;;;;9.80;8.80;;;16.60;99.90;;;;;;6215093;23;20565;-90
2021/08/12 06:14:33;;;;;;;9.83;8.83;;;16.70;99.90;;;;;;6214910;23;20426;-95
2021/08/12 06:17:21;;;;;;;9.43;8.30;;;16.70;99.90;;;;;;6211024;23;20386;-94
2021/08/12 06:19:49;;;;;;;8.93;8.10;;;16.70;99.90;;;;;;6208876;23;20461;-94
2021/08/12 06:22:19;;;;;;;9.50;8.60;;;16.70;99.90;;;;;;6210273;23;20773;-95
2021/08/12 06:24:52;;;;;;;12.03;9.63;;;16.80;99.90;;;;;;6210881;23;20390;-96
2021/08/12 06:37:51;;;;;;;9.93;8.83;;;17.10;99.90;;;;;;6301300;22;20434;-94
2021/08/12 06:40:25;;;;;;;10.53;8.77;;;17.20;99.90;;;;;;6272341;22;20461;-94
2021/08/12 06:43:19;;;;;;;10.03;9.13;;;17.30;99.90;;;;;;6271537;22;20438;-91
2021/08/12 06:45:59;;;;;;;10.20;8.63;;;17.40;99.90;;;;;;6268941;22;20493;-90
2021/08/12 06:48:57;;;;;;;10.47;9.47;;;17.60;99.90;;;;;;6294263;22;21177;-91
2021/08/12 06:51:27;;;;;;;11.37;8.63;;;17.80;99.90;;;;;;6267078;22;20402;-96
2021/08/12 06:54:11;;;;;;;10.50;9.37;;;17.90;99.90;;;;;;6309290;22;20396;-95
2021/08/12 06:56:47;;;;;;;9.10;7.70;;;18.10;99.90;;;;;;6254787;22;20400;-95
2021/08/12 13:02:35;;;;;;;9.03;8.20;;;31.30;90.20;;;;;;6347928;22;1345321;-92
2021/08/12 13:05:02;;;;;;;8.17;7.40;;;30.70;90.80;;;;;;6328405;22;20224;-92
2021/08/12 13:07:34;;;;;;;8.20;7.40;;;30.50;91.20;;;;;;6330900;22;20455;-91
2021/08/12 13:10:18;;;;;;;8.43;7.57;;;31.00;91.00;;;;;;6329045;22;20461;-90
2021/08/12 13:13:02;;;;;;;8.37;7.47;;;31.10;88.50;;;;;;6332625;22;20768;-94
2021/08/12 13:15:28;;;;;;;8.17;7.40;;;31.20;88.40;;;;;;6334470;22;20402;-90
2021/08/12 13:18:03;;;;;;;7.40;6.90;;;31.90;89.00;;;;;;6330776;22;20459;-92
2021/08/12 13:20:45;;;;;;;8.17;7.47;;;32.50;85.80;;;;;;6332302;22;20471;-94
2021/08/12 13:23:12;;;;;;;8.13;7.33;;;32.70;81.80;;;;;;6333646;22;20377;-95
2021/08/12 13:25:40;;;;;;;8.07;7.37;;;33.20;78.00;;;;;;6335560;22;20379;-96
2021/08/12 13:28:07;;;;;;;8.53;7.83;;;33.00;77.40;;;;;;6335182;22;20374;-90
2021/08/12 13:30:48;;;;;;;7.77;7.07;;;31.90;78.30;;;;;;6344380;22;20458;-96
2021/08/12 13:33:28;;;;;;;8.47;7.67;;;31.60;83.00;;;;;;6339328;22;20424;-91
2021/08/12 13:35:54;;;;;;;9.43;7.60;;;32.10;84.10;;;;;;6334258;22;20405;-92
2021/08/12 13:38:21;;;;;;;9.53;8.70;;;32.30;83.20;;;;;;6334378;22;20413;-90
2021/08/12 13:40:47;;;;;;;9.30;8.40;;;33.00;82.70;;;;;;6333416;22;20398;-93
2021/08/12 13:43:14;;;;;;;9.63;8.83;;;33.20;81.10;;;;;;6335509;22;20388;-93
2021/08/12 13:45:40;;;;;;;8.23;7.60;;;33.60;83.80;;;;;;6335643;22;20170;-93
2021/08/12 15:03:14;;;;;;;7.20;6.60;;;36.60;46.60;;;;;;6264855;22;20207;-88
2021/08/12 15:05:40;;;;;;;8.23;7.53;;;36.20;49.40;;;;;;6267471;22;20186;-84
2021/08/12 15:08:06;;;;;;;8.57;7.50;;;35.40;48.70;;;;;;6266731;22;20169;-85
2021/08/12 15:10:32;;;;;;;7.60;6.90;;;36.00;50.50;;;;;;6266397;22;20692;-84
2021/08/12 15:12:59;;;;;;;8.35;7.32;;;37.20;49.70;;;;;;6266882;22;20588;-84
2021/08/12 15:15:26;;;;;;;8.80;7.90;;;37.30;46.50;;;;;;6242790;22;20174;-84
2021/08/12 15:17:51;;;;;;;8.00;7.40;;;36.10;49.10;;;;;;6265317;22;20165;-84
2021/08/12 15:20:17;;;;;;;7.50;6.80;;;35.10;50.40;;;;;;6264605;22;20189;-84
2021/08/12 15:22:43;;;;;;;7.53;6.93;;;34.70;51.70;;;;;;6265725;22;20169;-84
2021/08/12 15:25:09;;;;;;;6.93;6.40;;;34.30;51.20;;;;;;6266082;22;20161;-86
2021/08/12 15:27:35;;;;;;;7.50;6.97;;;34.00;52.10;;;;;;6265743;22;20185;-85
2021/08/12 15:30:03;;;;;;;7.83;7.13;;;34.70;51.40;;;;;;6266495;22;20510;-84
2021/08/12 15:32:29;;;;;;;7.57;7.03;;;35.80;52.20;;;;;;6267421;22;20795;-85
2021/08/12 15:34:54;;;;;;;7.73;7.13;;;37.20;49.90;;;;;;6267268;22;20388;-85
2021/08/12 15:37:22;;;;;;;7.57;6.97;;;39.10;47.70;;;;;;6265832;22;20238;-85
2021/08/12 15:39:48;;;;;;;7.60;6.90;;;39.00;48.20;;;;;;6267280;22;20198;-84
2021/08/12 15:42:14;;;;;;;7.27;6.57;;;39.10;47.50;;;;;;6267617;22;20173;-84
2021/08/12 15:44:40;;;;;;;7.67;6.97;;;39.60;44.40;;;;;;6267288;22;20248;-84
2021/08/12 15:47:07;;;;;;;7.32;6.72;;;39.50;43.20;;;;;;6267457;22;20173;-84
2021/08/12 15:49:34;;;;;;;6.93;6.32;;;40.00;44.70;;;;;;6268044;22;20161;-85
2021/08/12 15:52:00;;;;;;;7.25;6.72;;;40.00;42.50;;;;;;6266655;22;20169;-84
2021/08/12 15:54:29;;;;;;;7.10;6.40;;;39.80;42.20;;;;;;6266439;22;20624;-85
2021/08/12 15:56:58;;;;;;;7.32;6.75;;;40.80;43.20;;;;;;6266716;22;20165;-85
2021/08/12 15:59:24;;;;;;;7.80;7.20;;;41.40;43.30;;;;;;6263919;22;20237;-84
2021/08/12 16:01:50;;;;;;;7.00;6.40;;;41.60;42.20;;;;;;6265471;22;20204;-84
2021/08/12 16:04:16;;;;;;;7.35;6.55;;;41.70;43.90;;;;;;6265690;22;20499;-85
2021/08/12 16:06:41;;;;;;;7.50;6.90;;;41.50;43.30;;;;;;6266658;22;20616;-84
2021/08/12 16:09:07;;;;;;;7.47;6.82;;;41.10;43.70;;;;;;6266499;22;20612;-84
2021/08/12 16:11:33;;;;;;;7.15;6.50;;;40.80;41.80;;;;;;6265770;22;20667;-85
2021/08/12 16:13:59;;;;;;;6.90;6.28;;;40.80;43.50;;;;;;6267353;22;20157;-85
2021/08/12 16:16:24;;;;;;;7.18;6.57;;;40.90;45.00;;;;;;6265417;22;20620;-85
2021/08/12 16:18:50;;;;;;;6.88;6.38;;;41.10;43.70;;;;;;6263509;22;20172;-84
2021/08/12 16:21:16;;;;;;;7.13;6.63;;;41.60;42.00;;;;;;6264458;22;20201;-84
2021/08/12 16:23:42;;;;;;;7.43;6.60;;;41.70;42.10;;;;;;6265068;22;20637;-83
2021/08/12 16:26:09;;;;;;;7.75;7.05;;;41.30;43.70;;;;;;6259942;22;20548;-83
2021/08/12 16:28:35;;;;;;;8.27;7.15;;;41.30;42.60;;;;;;6264337;22;20193;-84
2021/08/12 16:31:01;;;;;;;7.53;6.82;;;41.70;40.50;;;;;;6265413;22;20310;-83
2021/08/12 16:33:30;;;;;;;7.50;6.90;;;41.20;41.60;;;;;;6263997;22;20162;-83
2021/08/12 16:35:57;;;;;;;7.28;6.75;;;41.00;44.00;;;;;;6263061;22;20161;-83
2021/08/12 16:38:22;;;;;;;7.18;6.57;;;40.60;46.20;;;;;;6265310;22;20483;-83
2021/08/12 16:40:48;;;;;;;7.50;6.72;;;40.50;45.00;;;;;;6264378;22;20173;-83
2021/08/12 16:43:14;;;;;;;6.15;5.65;;;40.30;44.60;;;;;;6263180;22;20209;-83
2021/08/12 16:45:39;;;;;;;7.40;6.63;;;39.80;47.30;;;;;;6263495;22;20165;-86
2021/08/12 16:48:05;;;;;;;7.47;6.88;;;39.60;47.30;;;;;;6264822;22;20161;-83
2021/08/12 16:50:31;;;;;;;7.63;7.00;;;39.40;46.90;;;;;;6263848;22;20655;-82
2021/08/12 16:52:57;;;;;;;6.97;6.38;;;39.10;48.40;;;;;;6264521;22;20168;-90
2021/08/12 16:55:23;;;;;;;8.07;7.00;;;39.10;49.40;;;;;;6263502;22;20468;-83
2021/08/12 16:57:51;;;;;;;7.90;7.13;;;38.80;48.60;;;;;;6266174;22;20168;-86
2021/08/12 17:00:17;;;;;;;7.65;6.88;;;38.80;49.30;;;;;;6239135;22;20594;-86
2021/08/12 17:02:43;;;;;;;8.18;7.53;;;38.60;48.80;;;;;;6264612;22;20173;-85
2021/08/12 17:05:09;;;;;;;9.07;8.25;;;38.40;50.00;;;;;;6265443;22;20193;-87
2021/08/12 17:07:35;;;;;;;9.27;8.47;;;38.20;50.40;;;;;;6264490;22;20230;-88
2021/08/12 17:10:03;;;;;;;9.40;8.70;;;38.00;49.80;;;;;;6265482;22;20185;-87
2021/08/12 17:12:29;;;;;;;8.80;8.00;;;37.70;51.60;;;;;;6264508;22;20169;-87
2021/08/12 17:14:57;;;;;;;8.23;7.60;;;37.50;51.70;;;;;;6264532;22;20161;-86
2021/08/12 17:17:22;;;;;;;7.67;7.07;;;37.20;53.20;;;;;;6239377;22;20167;-87
2021/08/12 17:19:48;;;;;;;9.47;8.67;;;37.00;53.20;;;;;;6265327;22;20374;-82
2021/08/12 17:22:14;;;;;;;8.67;7.77;;;36.70;54.00;;;;;;6265591;22;20486;-87
2021/08/12 17:24:41;;;;;;;10.00;9.03;;;36.40;54.50;;;;;;6265578;22;20219;-87
2021/08/12 17:27:07;;;;;;;9.57;8.67;;;35.80;55.40;;;;;;6264370;22;20524;-87
2021/08/12 17:29:40;;;;;;;9.73;8.93;;;34.40;56.00;;;;;;6265454;22;20389;-87
2021/08/12 17:32:06;;;;;;;8.40;7.70;;;33.00;59.70;;;;;;6266203;22;20272;-86
2021/08/12 17:34:33;;;;;;;9.40;8.50;;;31.50;66.30;;;;;;6264153;22;20882;-87
2021/08/12 17:37:02;;;;;;;8.40;7.70;;;30.40;70.60;;;;;;6264112;22;20174;-87
2021/08/12 17:39:41;;;;;;;9.10;8.33;;;29.60;73.70;;;;;;6268657;22;20388;-87
2021/08/12 17:42:17;;;;;;;9.03;8.20;;;29.10;77.20;;;;;;6267162;22;20392;-87
2021/08/12 17:44:45;;;;;;;9.10;8.30;;;28.60;80.70;;;;;;6265745;22;20427;-88
2021/08/12 17:47:12;;;;;;;10.03;9.13;;;28.10;83.40;;;;;;6265740;22;20389;-92
2021/08/12 17:49:39;;;;;;;8.27;7.60;;;28.00;87.00;;;;;;6265942;22;20492;-91
2021/08/12 17:52:06;;;;;;;10.03;9.20;;;28.00;87.20;;;;;;6266814;22;20409;-93
2021/08/12 17:54:32;;;;;;;10.80;9.80;;;27.80;90.30;;;;;;6266992;22;20395;-93
2021/08/12 17:56:57;;;;;;;10.80;9.90;;;27.60;92.30;;;;;;6267009;22;20400;-92
2021/08/12 17:59:23;;;;;;;9.60;8.73;;;27.30;93.40;;;;;;6266753;22;20154;-93
2021/08/12 18:01:49;;;;;;;11.00;8.40;;;27.10;92.80;;;;;;6267203;22;20165;-92
2021/08/12 18:04:18;;;;;;;9.30;8.50;;;27.00;94.40;;;;;;6267461;22;20442;-92
2021/08/12 18:06:43;;;;;;;9.13;8.33;;;26.80;95.30;;;;;;6267915;22;20167;-92
2021/08/12 18:09:16;;;;;;;9.27;8.57;;;26.70;96.00;;;;;;6269271;22;20499;-92
2021/08/12 18:14:14;;;;;;;9.87;8.90;;;26.20;99.90;;;;;;6269258;22;20428;-92
2021/08/12 18:16:40;;;;;;;10.33;9.53;;;26.10;99.90;;;;;;6267057;22;20401;-92
2021/08/12 18:19:06;;;;;;;10.30;9.47;;;26.00;99.90;;;;;;6266637;22;20182;-92
2021/08/12 18:21:32;;;;;;;11.30;10.30;;;25.90;99.90;;;;;;6266515;22;20233;-92
2021/08/12 18:23:58;;;;;;;11.37;10.27;;;25.70;99.90;;;;;;6267721;22;20849;-92
2021/08/12 18:26:24;;;;;;;9.80;8.97;;;25.70;99.90;;;;;;6266796;22;20774;-92
2021/08/12 18:28:51;;;;;;;10.97;9.97;;;25.50;99.90;;;;;;6267783;22;20167;-93
2021/08/12 18:31:17;;;;;;;10.33;9.43;;;25.20;99.90;;;;;;6267651;22;20488;-92
2021/08/12 18:33:43;;;;;;;10.17;9.27;;;25.00;99.90;;;;;;6268062;22;20389;-92
2021/08/12 18:36:10;;;;;;;10.47;9.50;;;24.90;99.90;;;;;;6267369;22;20729;-91
2021/08/12 18:38:37;;;;;;;10.20;9.30;;;24.70;99.90;;;;;;6267140;22;20754;-92
2021/08/12 18:41:04;;;;;;;10.27;9.27;;;24.60;99.90;;;;;;6267058;22;20447;-92
2021/08/12 18:43:36;;;;;;;9.83;9.03;;;24.50;99.90;;;;;;6266848;22;20400;-91
2021/08/12 18:46:02;;;;;;;10.43;9.53;;;24.40;99.90;;;;;;6242773;22;20396;-92
2021/08/12 18:48:28;;;;;;;11.43;10.23;;;24.20;99.90;;;;;;6266415;22;21019;-92
2021/08/12 18:50:55;;;;;;;10.30;9.40;;;24.10;99.90;;;;;;6267274;22;20247;-92
2021/08/12 18:53:21;;;;;;;9.10;8.30;;;24.00;99.90;;;;;;6268009;22;20393;-91
2021/08/12 18:55:47;;;;;;;10.47;9.43;;;23.90;99.90;;;;;;6267493;22;20412;-92
2021/08/12 18:58:12;;;;;;;11.90;8.57;;;23.80;99.90;;;;;;6267038;22;20187;-92
2021/08/12 19:00:38;;;;;;;9.87;8.83;;;23.60;99.90;;;;;;6266026;22;20223;-91
2021/08/12 19:03:04;;;;;;;10.13;9.10;;;23.40;99.90;;;;;;6266590;22;20181;-91
2021/08/12 19:05:35;;;;;;;9.00;8.30;;;23.30;99.90;;;;;;6266392;22;20168;-92
2021/08/12 19:08:10;;;;;;;8.93;8.20;;;23.30;99.90;;;;;;6267598;22;20189;-92
2021/08/12 19:10:36;;;;;;;9.27;8.30;;;23.40;99.90;;;;;;6266236;22;20523;-92
2021/08/12 19:13:03;;;;;;;9.30;8.40;;;23.40;99.90;;;;;;6266823;22;20428;-92
2021/08/12 19:15:30;;;;;;;9.67;8.70;;;23.30;99.90;;;;;;6267152;22;20600;-92
2021/08/12 19:17:56;;;;;;;9.90;8.90;;;23.10;99.90;;;;;;6266364;22;20385;-92
2021/08/12 19:20:22;;;;;;;9.20;8.40;;;23.00;99.90;;;;;;6266909;22;20871;-91
2021/08/12 19:22:49;;;;;;;9.40;8.53;;;23.00;99.90;;;;;;6267871;22;20162;-91
2021/08/12 19:25:16;;;;;;;8.80;8.00;;;23.00;99.90;;;;;;6266648;22;20150;-92
2021/08/12 19:27:41;;;;;;;9.67;8.77;;;23.00;99.90;;;;;;6267339;22;20392;-92
2021/08/12 19:30:08;;;;;;;9.87;8.87;;;23.00;99.90;;;;;;6265964;22;20475;-92
2021/08/12 19:32:34;;;;;;;8.27;7.57;;;23.00;99.90;;;;;;6262654;22;20176;-92
2021/08/12 19:34:59;;;;;;;8.70;7.93;;;23.00;99.90;;;;;;6263651;22;21085;-92
2021/08/12 19:37:25;;;;;;;8.90;8.10;;;22.90;99.90;;;;;;6266524;22;20158;-93
2021/08/12 19:39:51;;;;;;;9.03;8.10;;;22.90;99.90;;;;;;6263389;22;20162;-93
2021/08/12 19:42:32;;;;;;;8.67;7.87;;;22.90;99.90;;;;;;6266870;22;20635;-90
2021/08/12 19:45:08;;;;;;;8.60;7.80;;;22.80;99.90;;;;;;6266038;22;20158;-96
2021/08/12 19:47:39;;;;;;;8.13;7.33;;;22.70;99.90;;;;;;6266316;22;20424;-88
2021/08/12 19:50:06;;;;;;;9.00;8.10;;;22.60;99.90;;;;;;6262435;22;20809;-87
2021/08/12 19:52:34;;;;;;;10.23;9.30;;;22.50;99.90;;;;;;6262570;22;20400;-83
2021/08/12 19:55:13;;;;;;;8.87;8.03;;;22.50;99.90;;;;;;6263847;22;20468;-87
2021/08/12 19:57:59;;;;;;;12.83;8.80;;;22.50;99.90;;;;;;6265817;22;20397;-89
2021/08/12 20:00:26;;;;;;;8.53;7.73;;;22.40;99.90;;;;;;6262650;22;20468;-89
2021/08/12 20:02:54;;;;;;;9.40;8.40;;;22.40;99.90;;;;;;6266210;22;20409;-88
2021/08/12 20:05:20;;;;;;;9.50;7.67;;;22.40;99.90;;;;;;6262124;22;20381;-90
2021/08/12 20:07:46;;;;;;;9.20;8.40;;;22.40;99.90;;;;;;6263825;22;20507;-87
2021/08/12 20:10:12;;;;;;;10.70;8.40;;;22.30;99.90;;;;;;6263792;22;20178;-87
2021/08/12 20:12:38;;;;;;;9.30;8.50;;;22.30;99.90;;;;;;6263520;22;20218;-87
2021/08/12 20:15:04;;;;;;;9.53;8.63;;;22.20;99.90;;;;;;6262800;22;20416;-87
2021/08/12 20:17:30;;;;;;;10.37;8.70;;;22.20;99.90;;;;;;6264172;22;20571;-87
2021/08/12 20:19:56;;;;;;;8.70;7.80;;;22.10;99.90;;;;;;6263178;22;20412;-88
2021/08/12 20:22:22;;;;;;;8.50;7.80;;;21.90;99.90;;;;;;6263821;22;20146;-88
2021/08/12 20:25:05;;;;;;;9.13;8.03;;;21.80;99.90;;;;;;6262965;22;20236;-93
2021/08/12 20:27:37;;;;;;;9.97;7.67;;;21.70;99.90;;;;;;6263480;22;20162;-92
2021/08/12 20:30:03;;;;;;;7.73;7.00;;;21.60;99.90;;;;;;6263996;22;20425;-88